sensor_id;sensor_type;location;lat;lon;timestamp;P1;durP1;ratioP1;P2;durP2;ratioP2
72388;SDS011;60566;48.062;9.930;2024-02-21T00:02:19;6.38;;;2.35;;
72388;SDS011;60566;48.062;9.930;2024-02-21T00:04:45;7.93;;;2.38;;
72388;SDS011;60566;48.062;9.930;2024-02-21T00:07:11;7.97;;;2.83;;
72388;SDS011;60566;48.062;9.930;2024-02-21T00:09:37;8.38;;;2.75;;
72388;SDS011;60566;48.062;9.930;2024-02-21T00:12:05;6.00;;;2.67;;
72388;SDS011;60566;48.062;9.930;2024-02-21T00:14:33;5.93;;;2.50;;
72388;SDS011;60566;48.062;9.930;2024-02-21T00:16:59;4.43;;;2.15;;
72388;SDS011;60566;48.062;9.930;2024-02-21T00:19:24;5.10;;;2.38;;
72388;SDS011;60566;48.062;9.930;2024-02-21T00:21:50;10.98;;;2.92;;
72388;SDS011;60566;48.062;9.930;2024-02-21T00:24:18;9.18;;;3.00;;
72388;SDS011;60566;48.062;9.930;2024-02-21T00:26:46;6.93;;;2.83;;
72388;SDS011;60566;48.062;9.930;2024-02-21T00:29:12;8.60;;;2.85;;
72388;SDS011;60566;48.062;9.930;2024-02-21T00:31:37;7.40;;;2.88;;
72388;SDS011;60566;48.062;9.930;2024-02-21T00:34:03;6.22;;;3.08;;
72388;SDS011;60566;48.062;9.930;2024-02-21T00:36:28;5.80;;;3.90;;
72388;SDS011;60566;48.062;9.930;2024-02-21T00:38:56;6.47;;;2.63;;
72388;SDS011;60566;48.062;9.930;2024-02-21T00:41:28;10.18;;;3.03;;
72388;SDS011;60566;48.062;9.930;2024-02-21T00:44:00;6.40;;;3.17;;
72388;SDS011;60566;48.062;9.930;2024-02-21T00:46:26;8.38;;;3.17;;
72388;SDS011;60566;48.062;9.930;2024-02-21T00:48:51;11.18;;;3.28;;
72388;SDS011;60566;48.062;9.930;2024-02-21T00:51:18;9.40;;;3.13;;
72388;SDS011;60566;48.062;9.930;2024-02-21T00:53:44;5.85;;;2.90;;
72388;SDS011;60566;48.062;9.930;2024-02-21T00:56:09;7.30;;;3.63;;
72388;SDS011;60566;48.062;9.930;2024-02-21T00:58:37;6.47;;;2.75;;
72388;SDS011;60566;48.062;9.930;2024-02-21T01:01:04;9.20;;;3.28;;
72388;SDS011;60566;48.062;9.930;2024-02-21T01:03:41;8.23;;;3.00;;
72388;SDS011;60566;48.062;9.930;2024-02-21T01:06:07;6.43;;;2.75;;
72388;SDS011;60566;48.062;9.930;2024-02-21T01:08:40;9.23;;;3.00;;
72388;SDS011;60566;48.062;9.930;2024-02-21T01:11:07;6.95;;;3.08;;
72388;SDS011;60566;48.062;9.930;2024-02-21T01:13:33;8.20;;;3.50;;
72388;SDS011;60566;48.062;9.930;2024-02-21T01:15:58;9.60;;;3.15;;
72388;SDS011;60566;48.062;9.930;2024-02-21T01:18:25;10.40;;;3.08;;
72388;SDS011;60566;48.062;9.930;2024-02-21T01:20:51;7.05;;;2.67;;
72388;SDS011;60566;48.062;9.930;2024-02-21T01:23:16;12.23;;;2.88;;
72388;SDS011;60566;48.062;9.930;2024-02-21T01:25:42;8.43;;;3.42;;
72388;SDS011;60566;48.062;9.930;2024-02-21T01:30:39;6.22;;;2.40;;
72388;SDS011;60566;48.062;9.930;2024-02-21T01:33:04;9.95;;;3.30;;
72388;SDS011;60566;48.062;9.930;2024-02-21T01:35:33;8.60;;;2.88;;
72388;SDS011;60566;48.062;9.930;2024-02-21T01:38:02;6.30;;;2.55;;
72388;SDS011;60566;48.062;9.930;2024-02-21T01:40:32;5.95;;;2.45;;
72388;SDS011;60566;48.062;9.930;2024-02-21T01:42:58;6.97;;;3.47;;
72388;SDS011;60566;48.062;9.930;2024-02-21T01:45:23;5.90;;;2.38;;
72388;SDS011;60566;48.062;9.930;2024-02-21T01:47:49;7.03;;;2.85;;
72388;SDS011;60566;48.062;9.930;2024-02-21T01:50:15;6.20;;;2.63;;
72388;SDS011;60566;48.062;9.930;2024-02-21T01:52:43;8.75;;;2.95;;
72388;SDS011;60566;48.062;9.930;2024-02-21T01:55:11;4.65;;;2.83;;
72388;SDS011;60566;48.062;9.930;2024-02-21T01:57:38;7.55;;;2.55;;
72388;SDS011;60566;48.062;9.930;2024-02-21T02:00:04;9.35;;;2.67;;
72388;SDS011;60566;48.062;9.930;2024-02-21T02:02:31;6.88;;;2.22;;
72388;SDS011;60566;48.062;9.930;2024-02-21T02:07:30;10.23;;;3.00;;
72388;SDS011;60566;48.062;9.930;2024-02-21T02:09:58;8.82;;;3.45;;
72388;SDS011;60566;48.062;9.930;2024-02-21T02:12:23;5.30;;;2.50;;
72388;SDS011;60566;48.062;9.930;2024-02-21T02:14:58;4.43;;;2.28;;
72388;SDS011;60566;48.062;9.930;2024-02-21T02:17:24;6.65;;;2.28;;
72388;SDS011;60566;48.062;9.930;2024-02-21T02:19:49;5.75;;;2.55;;
72388;SDS011;60566;48.062;9.930;2024-02-21T02:22:16;9.82;;;3.28;;
72388;SDS011;60566;48.062;9.930;2024-02-21T02:24:51;7.10;;;2.45;;
72388;SDS011;60566;48.062;9.930;2024-02-21T02:27:16;7.68;;;2.63;;
72388;SDS011;60566;48.062;9.930;2024-02-21T02:29:42;8.10;;;2.38;;
72388;SDS011;60566;48.062;9.930;2024-02-21T02:32:07;5.50;;;2.30;;
72388;SDS011;60566;48.062;9.930;2024-02-21T02:34:32;4.88;;;3.03;;
72388;SDS011;60566;48.062;9.930;2024-02-21T02:36:58;10.63;;;3.20;;
72388;SDS011;60566;48.062;9.930;2024-02-21T02:39:48;6.68;;;3.03;;
72388;SDS011;60566;48.062;9.930;2024-02-21T02:42:23;7.93;;;3.10;;
72388;SDS011;60566;48.062;9.930;2024-02-21T02:44:49;15.20;;;8.00;;
72388;SDS011;60566;48.062;9.930;2024-02-21T02:47:14;11.43;;;5.70;;
72388;SDS011;60566;48.062;9.930;2024-02-21T02:49:40;12.82;;;5.72;;
72388;SDS011;60566;48.062;9.930;2024-02-21T02:52:05;11.73;;;4.10;;
72388;SDS011;60566;48.062;9.930;2024-02-21T02:54:32;6.47;;;2.70;;
72388;SDS011;60566;48.062;9.930;2024-02-21T02:56:59;5.43;;;2.42;;
72388;SDS011;60566;48.062;9.930;2024-02-21T02:59:24;6.72;;;2.35;;
72388;SDS011;60566;48.062;9.930;2024-02-21T03:01:50;8.13;;;3.08;;
72388;SDS011;60566;48.062;9.930;2024-02-21T03:04:15;7.78;;;2.75;;
72388;SDS011;60566;48.062;9.930;2024-02-21T03:06:41;5.45;;;3.17;;
72388;SDS011;60566;48.062;9.930;2024-02-21T03:09:08;5.00;;;2.58;;
72388;SDS011;60566;48.062;9.930;2024-02-21T03:11:35;6.72;;;2.72;;
72388;SDS011;60566;48.062;9.930;2024-02-21T03:14:01;12.32;;;4.97;;
72388;SDS011;60566;48.062;9.930;2024-02-21T03:16:30;6.75;;;3.15;;
72388;SDS011;60566;48.062;9.930;2024-02-21T03:18:55;8.27;;;2.78;;
72388;SDS011;60566;48.062;9.930;2024-02-21T03:21:20;7.25;;;2.70;;
72388;SDS011;60566;48.062;9.930;2024-02-21T03:23:46;5.88;;;2.55;;
72388;SDS011;60566;48.062;9.930;2024-02-21T03:26:13;8.50;;;3.03;;
72388;SDS011;60566;48.062;9.930;2024-02-21T03:28:39;6.05;;;2.55;;
72388;SDS011;60566;48.062;9.930;2024-02-21T03:31:05;5.93;;;3.05;;
72388;SDS011;60566;48.062;9.930;2024-02-21T03:33:33;7.57;;;2.65;;
72388;SDS011;60566;48.062;9.930;2024-02-21T03:35:58;5.82;;;2.13;;
72388;SDS011;60566;48.062;9.930;2024-02-21T03:38:26;5.50;;;2.40;;
72388;SDS011;60566;48.062;9.930;2024-02-21T03:40:51;5.55;;;1.92;;
72388;SDS011;60566;48.062;9.930;2024-02-21T03:43:17;5.38;;;2.30;;
72388;SDS011;60566;48.062;9.930;2024-02-21T03:45:42;5.85;;;2.30;;
72388;SDS011;60566;48.062;9.930;2024-02-21T03:48:09;4.72;;;2.22;;
72388;SDS011;60566;48.062;9.930;2024-02-21T03:50:34;4.90;;;2.33;;
72388;SDS011;60566;48.062;9.930;2024-02-21T03:53:01;5.47;;;2.83;;
72388;SDS011;60566;48.062;9.930;2024-02-21T03:55:27;3.90;;;2.03;;
72388;SDS011;60566;48.062;9.930;2024-02-21T03:57:53;4.40;;;2.17;;
72388;SDS011;60566;48.062;9.930;2024-02-21T04:00:18;5.97;;;2.28;;
72388;SDS011;60566;48.062;9.930;2024-02-21T04:02:44;5.75;;;2.00;;
72388;SDS011;60566;48.062;9.930;2024-02-21T04:05:11;5.03;;;2.25;;
72388;SDS011;60566;48.062;9.930;2024-02-21T04:07:40;6.03;;;1.98;;
72388;SDS011;60566;48.062;9.930;2024-02-21T04:10:05;4.57;;;2.10;;
72388;SDS011;60566;48.062;9.930;2024-02-21T04:12:32;7.20;;;2.17;;
72388;SDS011;60566;48.062;9.930;2024-02-21T04:14:57;6.15;;;2.33;;
72388;SDS011;60566;48.062;9.930;2024-02-21T04:17:25;3.63;;;1.80;;
72388;SDS011;60566;48.062;9.930;2024-02-21T04:20:02;5.15;;;2.22;;
72388;SDS011;60566;48.062;9.930;2024-02-21T04:22:30;3.55;;;1.70;;
72388;SDS011;60566;48.062;9.930;2024-02-21T04:24:55;3.85;;;2.00;;
72388;SDS011;60566;48.062;9.930;2024-02-21T04:27:40;5.25;;;1.75;;
72388;SDS011;60566;48.062;9.930;2024-02-21T04:30:06;4.95;;;1.90;;
72388;SDS011;60566;48.062;9.930;2024-02-21T04:32:32;3.53;;;2.10;;
72388;SDS011;60566;48.062;9.930;2024-02-21T04:34:57;4.28;;;1.75;;
72388;SDS011;60566;48.062;9.930;2024-02-21T04:37:26;3.92;;;1.80;;
72388;SDS011;60566;48.062;9.930;2024-02-21T04:39:59;4.68;;;1.80;;
72388;SDS011;60566;48.062;9.930;2024-02-21T04:42:24;3.60;;;1.80;;
72388;SDS011;60566;48.062;9.930;2024-02-21T04:44:50;4.97;;;1.92;;
72388;SDS011;60566;48.062;9.930;2024-02-21T04:47:16;3.95;;;1.88;;
72388;SDS011;60566;48.062;9.930;2024-02-21T04:49:41;3.38;;;1.63;;
72388;SDS011;60566;48.062;9.930;2024-02-21T04:52:07;2.75;;;1.38;;
72388;SDS011;60566;48.062;9.930;2024-02-21T04:54:32;5.75;;;1.80;;
72388;SDS011;60566;48.062;9.930;2024-02-21T04:56:59;4.78;;;1.90;;
72388;SDS011;60566;48.062;9.930;2024-02-21T04:59:25;3.92;;;1.77;;
72388;SDS011;60566;48.062;9.930;2024-02-21T05:01:50;5.15;;;2.25;;
72388;SDS011;60566;48.062;9.930;2024-02-21T05:04:16;4.90;;;2.00;;
72388;SDS011;60566;48.062;9.930;2024-02-21T05:06:41;3.63;;;2.03;;
72388;SDS011;60566;48.062;9.930;2024-02-21T05:09:09;4.38;;;1.50;;
72388;SDS011;60566;48.062;9.930;2024-02-21T05:11:36;4.25;;;1.88;;
72388;SDS011;60566;48.062;9.930;2024-02-21T05:14:03;4.47;;;2.03;;
72388;SDS011;60566;48.062;9.930;2024-02-21T05:16:29;3.08;;;1.50;;
72388;SDS011;60566;48.062;9.930;2024-02-21T05:18:54;4.28;;;1.60;;
72388;SDS011;60566;48.062;9.930;2024-02-21T05:21:24;3.60;;;1.42;;
72388;SDS011;60566;48.062;9.930;2024-02-21T05:23:52;3.33;;;1.77;;
72388;SDS011;60566;48.062;9.930;2024-02-21T05:26:20;3.53;;;2.17;;
72388;SDS011;60566;48.062;9.930;2024-02-21T05:28:46;4.07;;;1.67;;
72388;SDS011;60566;48.062;9.930;2024-02-21T05:31:15;4.72;;;1.50;;
72388;SDS011;60566;48.062;9.930;2024-02-21T05:33:42;6.72;;;1.92;;
72388;SDS011;60566;48.062;9.930;2024-02-21T05:36:08;4.75;;;1.52;;
72388;SDS011;60566;48.062;9.930;2024-02-21T05:38:33;4.03;;;1.88;;
72388;SDS011;60566;48.062;9.930;2024-02-21T05:41:02;4.65;;;1.80;;
72388;SDS011;60566;48.062;9.930;2024-02-21T05:43:28;3.67;;;1.63;;
72388;SDS011;60566;48.062;9.930;2024-02-21T05:45:53;5.60;;;1.63;;
72388;SDS011;60566;48.062;9.930;2024-02-21T05:48:22;3.83;;;1.55;;
72388;SDS011;60566;48.062;9.930;2024-02-21T05:50:48;3.30;;;1.63;;
72388;SDS011;60566;48.062;9.930;2024-02-21T05:53:13;5.00;;;2.33;;
72388;SDS011;60566;48.062;9.930;2024-02-21T05:55:44;3.92;;;1.88;;
72388;SDS011;60566;48.062;9.930;2024-02-21T05:58:09;4.47;;;2.00;;
72388;SDS011;60566;48.062;9.930;2024-02-21T06:00:35;4.15;;;1.98;;
72388;SDS011;60566;48.062;9.930;2024-02-21T06:03:01;4.60;;;1.70;;
72388;SDS011;60566;48.062;9.930;2024-02-21T06:05:28;2.97;;;1.63;;
72388;SDS011;60566;48.062;9.930;2024-02-21T06:07:54;3.70;;;1.42;;
72388;SDS011;60566;48.062;9.930;2024-02-21T06:10:22;4.88;;;1.75;;
72388;SDS011;60566;48.062;9.930;2024-02-21T06:12:50;3.42;;;1.33;;
72388;SDS011;60566;48.062;9.930;2024-02-21T06:15:16;3.03;;;1.33;;
72388;SDS011;60566;48.062;9.930;2024-02-21T06:17:41;3.25;;;1.75;;
72388;SDS011;60566;48.062;9.930;2024-02-21T06:20:08;3.47;;;1.65;;
72388;SDS011;60566;48.062;9.930;2024-02-21T06:22:35;3.38;;;1.50;;
72388;SDS011;60566;48.062;9.930;2024-02-21T06:25:00;7.70;;;1.52;;
72388;SDS011;60566;48.062;9.930;2024-02-21T06:27:26;4.30;;;1.90;;
72388;SDS011;60566;48.062;9.930;2024-02-21T06:29:51;6.55;;;1.80;;
72388;SDS011;60566;48.062;9.930;2024-02-21T06:32:17;3.15;;;1.60;;
72388;SDS011;60566;48.062;9.930;2024-02-21T06:34:42;4.85;;;1.60;;
72388;SDS011;60566;48.062;9.930;2024-02-21T06:37:08;4.47;;;1.70;;
72388;SDS011;60566;48.062;9.930;2024-02-21T06:39:34;3.13;;;1.50;;
72388;SDS011;60566;48.062;9.930;2024-02-21T06:42:00;4.25;;;1.67;;
72388;SDS011;60566;48.062;9.930;2024-02-21T06:44:28;6.18;;;2.60;;
72388;SDS011;60566;48.062;9.930;2024-02-21T06:50:09;6.53;;;1.85;;
72388;SDS011;60566;48.062;9.930;2024-02-21T07:02:09;3.58;;;1.88;;
72388;SDS011;60566;48.062;9.930;2024-02-21T07:04:53;4.70;;;1.70;;
72388;SDS011;60566;48.062;9.930;2024-02-21T07:07:43;2.25;;;1.42;;
72388;SDS011;60566;48.062;9.930;2024-02-21T07:10:56;4.28;;;1.48;;
72388;SDS011;60566;48.062;9.930;2024-02-21T07:13:33;3.40;;;1.50;;
72388;SDS011;60566;48.062;9.930;2024-02-21T07:28:16;2.15;;;1.02;;
72388;SDS011;60566;48.062;9.930;2024-02-21T07:32:12;4.28;;;1.80;;
72388;SDS011;60566;48.062;9.930;2024-02-21T07:34:13;7.47;;;1.40;;
72388;SDS011;60566;48.062;9.930;2024-02-21T07:36:50;5.60;;;1.98;;
72388;SDS011;60566;48.062;9.930;2024-02-21T07:39:35;3.83;;;1.75;;
72388;SDS011;60566;48.062;9.930;2024-02-21T07:42:18;1.77;;;1.02;;
72388;SDS011;60566;48.062;9.930;2024-02-21T07:47:31;2.33;;;1.40;;
72388;SDS011;60566;48.062;9.930;2024-02-21T07:49:57;3.53;;;1.30;;
72388;SDS011;60566;48.062;9.930;2024-02-21T07:52:22;2.75;;;1.38;;
72388;SDS011;60566;48.062;9.930;2024-02-21T07:54:48;2.53;;;1.10;;
72388;SDS011;60566;48.062;9.930;2024-02-21T07:57:28;2.50;;;1.23;;
72388;SDS011;60566;48.062;9.930;2024-02-21T08:03:00;3.08;;;1.35;;
72388;SDS011;60566;48.062;9.930;2024-02-21T08:05:56;3.47;;;1.77;;
72388;SDS011;60566;48.062;9.930;2024-02-21T08:08:40;1.83;;;0.75;;
72388;SDS011;60566;48.062;9.930;2024-02-21T08:11:27;2.10;;;1.25;;
72388;SDS011;60566;48.062;9.930;2024-02-21T08:14:23;2.70;;;1.20;;
72388;SDS011;60566;48.062;9.930;2024-02-21T08:20:17;2.38;;;1.20;;
72388;SDS011;60566;48.062;9.930;2024-02-21T08:28:45;1.65;;;1.27;;
72388;SDS011;60566;48.062;9.930;2024-02-21T08:34:00;2.40;;;1.23;;
72388;SDS011;60566;48.062;9.930;2024-02-21T08:36:39;2.42;;;1.27;;
72388;SDS011;60566;48.062;9.930;2024-02-21T08:41:57;3.60;;;1.20;;
72388;SDS011;60566;48.062;9.930;2024-02-21T08:44:35;2.88;;;1.10;;
72388;SDS011;60566;48.062;9.930;2024-02-21T08:47:22;3.72;;;1.23;;
72388;SDS011;60566;48.062;9.930;2024-02-21T08:49:52;2.58;;;0.95;;
72388;SDS011;60566;48.062;9.930;2024-02-21T08:58:09;2.60;;;1.10;;
72388;SDS011;60566;48.062;9.930;2024-02-21T09:00:34;4.75;;;1.30;;
72388;SDS011;60566;48.062;9.930;2024-02-21T09:03:00;3.42;;;1.40;;
72388;SDS011;60566;48.062;9.930;2024-02-21T09:05:25;3.95;;;1.60;;
72388;SDS011;60566;48.062;9.930;2024-02-21T09:07:52;3.70;;;1.80;;
72388;SDS011;60566;48.062;9.930;2024-02-21T09:10:20;2.25;;;1.10;;
72388;SDS011;60566;48.062;9.930;2024-02-21T09:12:46;2.58;;;1.58;;
72388;SDS011;60566;48.062;9.930;2024-02-21T09:15:11;2.72;;;1.40;;
72388;SDS011;60566;48.062;9.930;2024-02-21T09:17:41;3.28;;;1.52;;
72388;SDS011;60566;48.062;9.930;2024-02-21T09:20:10;4.88;;;1.70;;
72388;SDS011;60566;48.062;9.930;2024-02-21T09:22:36;4.82;;;1.50;;
72388;SDS011;60566;48.062;9.930;2024-02-21T09:25:03;3.75;;;1.23;;
72388;SDS011;60566;48.062;9.930;2024-02-21T09:27:29;6.15;;;1.67;;
72388;SDS011;60566;48.062;9.930;2024-02-21T09:29:55;3.40;;;1.52;;
72388;SDS011;60566;48.062;9.930;2024-02-21T09:32:20;3.13;;;1.40;;
72388;SDS011;60566;48.062;9.930;2024-02-21T09:34:50;3.90;;;1.67;;
72388;SDS011;60566;48.062;9.930;2024-02-21T09:37:18;3.63;;;1.33;;
72388;SDS011;60566;48.062;9.930;2024-02-21T09:39:49;3.17;;;1.30;;
72388;SDS011;60566;48.062;9.930;2024-02-21T09:42:18;3.45;;;1.50;;
72388;SDS011;60566;48.062;9.930;2024-02-21T09:44:47;4.60;;;1.90;;
72388;SDS011;60566;48.062;9.930;2024-02-21T09:47:16;4.65;;;1.70;;
72388;SDS011;60566;48.062;9.930;2024-02-21T09:49:47;6.72;;;2.95;;
72388;SDS011;60566;48.062;9.930;2024-02-21T09:52:12;3.50;;;1.77;;
72388;SDS011;60566;48.062;9.930;2024-02-21T09:54:44;3.85;;;1.48;;
72388;SDS011;60566;48.062;9.930;2024-02-21T09:57:10;4.72;;;1.70;;
72388;SDS011;60566;48.062;9.930;2024-02-21T09:59:37;5.18;;;1.75;;
72388;SDS011;60566;48.062;9.930;2024-02-21T10:02:04;3.75;;;1.50;;
72388;SDS011;60566;48.062;9.930;2024-02-21T10:04:31;3.90;;;1.30;;
72388;SDS011;60566;48.062;9.930;2024-02-21T10:06:57;2.40;;;1.30;;
72388;SDS011;60566;48.062;9.930;2024-02-21T10:09:22;2.83;;;1.20;;
72388;SDS011;60566;48.062;9.930;2024-02-21T10:11:51;7.30;;;2.55;;
72388;SDS011;60566;48.062;9.930;2024-02-21T10:14:18;5.07;;;2.17;;
72388;SDS011;60566;48.062;9.930;2024-02-21T10:16:48;2.92;;;1.60;;
72388;SDS011;60566;48.062;9.930;2024-02-21T10:22:05;3.97;;;1.50;;
72388;SDS011;60566;48.062;9.930;2024-02-21T10:24:32;5.05;;;1.65;;
72388;SDS011;60566;48.062;9.930;2024-02-21T10:27:01;3.47;;;1.42;;
72388;SDS011;60566;48.062;9.930;2024-02-21T10:29:30;4.10;;;1.55;;
72388;SDS011;60566;48.062;9.930;2024-02-21T10:32:05;2.83;;;1.50;;
72388;SDS011;60566;48.062;9.930;2024-02-21T10:34:36;2.45;;;1.20;;
72388;SDS011;60566;48.062;9.930;2024-02-21T10:37:13;3.22;;;1.58;;
72388;SDS011;60566;48.062;9.930;2024-02-21T10:39:39;4.32;;;2.00;;
72388;SDS011;60566;48.062;9.930;2024-02-21T10:42:06;5.63;;;1.75;;
72388;SDS011;60566;48.062;9.930;2024-02-21T10:44:32;2.97;;;1.50;;
72388;SDS011;60566;48.062;9.930;2024-02-21T10:47:12;4.18;;;1.50;;
72388;SDS011;60566;48.062;9.930;2024-02-21T10:49:41;2.78;;;1.33;;
72388;SDS011;60566;48.062;9.930;2024-02-21T10:52:19;2.88;;;1.60;;
72388;SDS011;60566;48.062;9.930;2024-02-21T10:54:53;4.18;;;2.03;;
72388;SDS011;60566;48.062;9.930;2024-02-21T10:57:41;3.47;;;1.80;;
72388;SDS011;60566;48.062;9.930;2024-02-21T11:00:18;5.45;;;1.80;;
72388;SDS011;60566;48.062;9.930;2024-02-21T11:05:29;3.10;;;1.35;;
72388;SDS011;60566;48.062;9.930;2024-02-21T11:07:59;2.40;;;1.17;;
72388;SDS011;60566;48.062;9.930;2024-02-21T11:10:47;1.80;;;0.98;;
72388;SDS011;60566;48.062;9.930;2024-02-21T11:13:12;3.00;;;1.10;;
72388;SDS011;60566;48.062;9.930;2024-02-21T11:15:43;2.33;;;1.13;;
72388;SDS011;60566;48.062;9.930;2024-02-21T11:18:13;3.03;;;1.15;;
72388;SDS011;60566;48.062;9.930;2024-02-21T11:20:52;2.60;;;1.40;;
72388;SDS011;60566;48.062;9.930;2024-02-21T11:23:27;3.30;;;1.40;;
72388;SDS011;60566;48.062;9.930;2024-02-21T11:28:55;3.55;;;1.27;;
72388;SDS011;60566;48.062;9.930;2024-02-21T11:31:25;4.00;;;1.30;;
72388;SDS011;60566;48.062;9.930;2024-02-21T11:36:48;3.20;;;1.60;;
72388;SDS011;60566;48.062;9.930;2024-02-21T11:39:18;2.97;;;1.45;;
72388;SDS011;60566;48.062;9.930;2024-02-21T11:41:46;4.78;;;1.27;;
72388;SDS011;60566;48.062;9.930;2024-02-21T11:44:17;4.85;;;1.48;;
72388;SDS011;60566;48.062;9.930;2024-02-21T11:46:46;3.03;;;1.63;;
72388;SDS011;60566;48.062;9.930;2024-02-21T11:49:16;3.60;;;1.42;;
72388;SDS011;60566;48.062;9.930;2024-02-21T11:51:43;2.95;;;1.35;;
72388;SDS011;60566;48.062;9.930;2024-02-21T11:54:15;3.15;;;1.50;;
72388;SDS011;60566;48.062;9.930;2024-02-21T11:56:42;3.63;;;1.65;;
72388;SDS011;60566;48.062;9.930;2024-02-21T11:59:08;4.85;;;1.73;;
72388;SDS011;60566;48.062;9.930;2024-02-21T12:01:34;4.13;;;1.50;;
72388;SDS011;60566;48.062;9.930;2024-02-21T12:03:59;3.10;;;1.35;;
72388;SDS011;60566;48.062;9.930;2024-02-21T12:06:29;2.97;;;1.50;;
72388;SDS011;60566;48.062;9.930;2024-02-21T12:08:57;3.88;;;1.45;;
72388;SDS011;60566;48.062;9.930;2024-02-21T12:11:23;2.80;;;1.30;;
72388;SDS011;60566;48.062;9.930;2024-02-21T12:16:24;2.97;;;1.27;;
72388;SDS011;60566;48.062;9.930;2024-02-21T12:18:52;2.80;;;1.48;;
72388;SDS011;60566;48.062;9.930;2024-02-21T12:21:18;2.03;;;1.08;;
72388;SDS011;60566;48.062;9.930;2024-02-21T12:23:52;2.70;;;1.42;;
72388;SDS011;60566;48.062;9.930;2024-02-21T12:26:19;3.85;;;1.33;;
72388;SDS011;60566;48.062;9.930;2024-02-21T12:28:45;3.40;;;1.23;;
72388;SDS011;60566;48.062;9.930;2024-02-21T12:31:12;2.80;;;1.30;;
72388;SDS011;60566;48.062;9.930;2024-02-21T12:33:46;3.13;;;1.35;;
72388;SDS011;60566;48.062;9.930;2024-02-21T12:36:12;3.97;;;1.52;;
72388;SDS011;60566;48.062;9.930;2024-02-21T12:38:39;5.80;;;1.80;;
72388;SDS011;60566;48.062;9.930;2024-02-21T12:41:15;7.85;;;2.20;;
72388;SDS011;60566;48.062;9.930;2024-02-21T12:43:47;3.70;;;1.42;;
72388;SDS011;60566;48.062;9.930;2024-02-21T12:46:12;4.68;;;1.55;;
72388;SDS011;60566;48.062;9.930;2024-02-21T12:48:40;4.68;;;1.90;;
72388;SDS011;60566;48.062;9.930;2024-02-21T12:51:05;3.63;;;1.30;;
72388;SDS011;60566;48.062;9.930;2024-02-21T12:53:31;3.97;;;1.80;;
72388;SDS011;60566;48.062;9.930;2024-02-21T12:56:02;2.33;;;1.20;;
72388;SDS011;60566;48.062;9.930;2024-02-21T12:58:41;3.08;;;1.20;;
72388;SDS011;60566;48.062;9.930;2024-02-21T13:01:24;2.65;;;1.38;;
72388;SDS011;60566;48.062;9.930;2024-02-21T13:03:49;7.32;;;1.60;;
72388;SDS011;60566;48.062;9.930;2024-02-21T13:06:15;3.63;;;1.52;;
72388;SDS011;60566;48.062;9.930;2024-02-21T13:08:42;2.92;;;1.33;;
72388;SDS011;60566;48.062;9.930;2024-02-21T13:11:09;2.85;;;1.33;;
72388;SDS011;60566;48.062;9.930;2024-02-21T13:13:38;3.42;;;1.65;;
72388;SDS011;60566;48.062;9.930;2024-02-21T13:16:09;4.90;;;1.20;;
72388;SDS011;60566;48.062;9.930;2024-02-21T13:18:34;2.10;;;1.02;;
72388;SDS011;60566;48.062;9.930;2024-02-21T13:21:00;2.00;;;1.20;;
72388;SDS011;60566;48.062;9.930;2024-02-21T13:23:25;4.72;;;1.73;;
72388;SDS011;60566;48.062;9.930;2024-02-21T13:25:51;3.05;;;1.35;;
72388;SDS011;60566;48.062;9.930;2024-02-21T13:28:16;5.18;;;1.45;;
72388;SDS011;60566;48.062;9.930;2024-02-21T13:30:46;2.53;;;1.15;;
72388;SDS011;60566;48.062;9.930;2024-02-21T13:33:13;3.08;;;1.83;;
72388;SDS011;60566;48.062;9.930;2024-02-21T13:35:38;2.50;;;1.35;;
72388;SDS011;60566;48.062;9.930;2024-02-21T13:38:10;3.28;;;1.02;;
72388;SDS011;60566;48.062;9.930;2024-02-21T13:41:08;2.92;;;1.25;;
72388;SDS011;60566;48.062;9.930;2024-02-21T13:46:48;3.47;;;1.45;;
72388;SDS011;60566;48.062;9.930;2024-02-21T14:01:42;3.25;;;1.23;;
72388;SDS011;60566;48.062;9.930;2024-02-21T14:04:09;3.42;;;1.10;;
72388;SDS011;60566;48.062;9.930;2024-02-21T14:06:35;3.78;;;1.25;;
72388;SDS011;60566;48.062;9.930;2024-02-21T14:09:02;2.83;;;1.30;;
72388;SDS011;60566;48.062;9.930;2024-02-21T14:11:33;3.30;;;1.40;;
72388;SDS011;60566;48.062;9.930;2024-02-21T14:14:12;2.83;;;1.23;;
72388;SDS011;60566;48.062;9.930;2024-02-21T14:16:49;2.83;;;1.45;;
72388;SDS011;60566;48.062;9.930;2024-02-21T14:19:14;4.72;;;1.63;;
72388;SDS011;60566;48.062;9.930;2024-02-21T14:21:40;5.60;;;1.50;;
72388;SDS011;60566;48.062;9.930;2024-02-21T14:24:08;2.90;;;1.40;;
72388;SDS011;60566;48.062;9.930;2024-02-21T14:26:34;4.45;;;1.90;;
72388;SDS011;60566;48.062;9.930;2024-02-21T14:29:05;3.35;;;1.67;;
72388;SDS011;60566;48.062;9.930;2024-02-21T14:31:51;4.35;;;2.05;;
72388;SDS011;60566;48.062;9.930;2024-02-21T14:34:35;3.60;;;1.52;;
72388;SDS011;60566;48.062;9.930;2024-02-21T14:37:04;3.90;;;1.70;;
72388;SDS011;60566;48.062;9.930;2024-02-21T14:41:57;3.63;;;1.73;;
72388;SDS011;60566;48.062;9.930;2024-02-21T14:44:29;7.55;;;1.83;;
72388;SDS011;60566;48.062;9.930;2024-02-21T14:47:04;5.57;;;2.05;;
72388;SDS011;60566;48.062;9.930;2024-02-21T14:49:35;5.32;;;1.92;;
72388;SDS011;60566;48.062;9.930;2024-02-21T14:52:01;4.07;;;1.90;;
72388;SDS011;60566;48.062;9.930;2024-02-21T14:54:26;5.72;;;2.47;;
72388;SDS011;60566;48.062;9.930;2024-02-21T14:56:54;13.88;;;4.47;;
72388;SDS011;60566;48.062;9.930;2024-02-21T14:59:20;4.20;;;2.40;;
72388;SDS011;60566;48.062;9.930;2024-02-21T15:01:45;12.88;;;4.63;;
72388;SDS011;60566;48.062;9.930;2024-02-21T15:04:11;8.07;;;3.28;;
72388;SDS011;60566;48.062;9.930;2024-02-21T15:06:43;9.85;;;4.07;;
72388;SDS011;60566;48.062;9.930;2024-02-21T15:09:11;4.80;;;2.47;;
72388;SDS011;60566;48.062;9.930;2024-02-21T15:11:37;3.85;;;1.85;;
72388;SDS011;60566;48.062;9.930;2024-02-21T15:14:09;5.82;;;1.90;;
72388;SDS011;60566;48.062;9.930;2024-02-21T15:16:37;4.20;;;2.13;;
72388;SDS011;60566;48.062;9.930;2024-02-21T15:21:33;4.20;;;1.73;;
72388;SDS011;60566;48.062;9.930;2024-02-21T15:24:03;4.47;;;2.33;;
72388;SDS011;60566;48.062;9.930;2024-02-21T15:26:32;4.07;;;2.17;;
72388;SDS011;60566;48.062;9.930;2024-02-21T15:29:01;3.65;;;1.75;;
72388;SDS011;60566;48.062;9.930;2024-02-21T15:31:27;4.10;;;1.90;;
72388;SDS011;60566;48.062;9.930;2024-02-21T15:33:55;4.97;;;2.08;;
72388;SDS011;60566;48.062;9.930;2024-02-21T15:36:20;5.22;;;2.53;;
72388;SDS011;60566;48.062;9.930;2024-02-21T15:38:48;5.97;;;1.88;;
72388;SDS011;60566;48.062;9.930;2024-02-21T15:41:15;5.82;;;2.13;;
72388;SDS011;60566;48.062;9.930;2024-02-21T15:43:45;6.55;;;2.00;;
72388;SDS011;60566;48.062;9.930;2024-02-21T15:46:15;4.18;;;1.90;;
72388;SDS011;60566;48.062;9.930;2024-02-21T15:48:41;5.05;;;2.67;;
72388;SDS011;60566;48.062;9.930;2024-02-21T15:51:06;4.70;;;1.73;;
72388;SDS011;60566;48.062;9.930;2024-02-21T15:53:42;5.55;;;2.25;;
72388;SDS011;60566;48.062;9.930;2024-02-21T15:56:08;5.85;;;2.00;;
72388;SDS011;60566;48.062;9.930;2024-02-21T15:58:37;5.53;;;1.98;;
72388;SDS011;60566;48.062;9.930;2024-02-21T16:01:03;4.35;;;2.20;;
72388;SDS011;60566;48.062;9.930;2024-02-21T16:03:38;6.18;;;1.75;;
72388;SDS011;60566;48.062;9.930;2024-02-21T16:06:12;4.32;;;2.05;;
72388;SDS011;60566;48.062;9.930;2024-02-21T16:08:40;3.60;;;2.15;;
72388;SDS011;60566;48.062;9.930;2024-02-21T16:11:06;5.65;;;1.85;;
72388;SDS011;60566;48.062;9.930;2024-02-21T16:13:41;4.07;;;2.15;;
72388;SDS011;60566;48.062;9.930;2024-02-21T16:16:16;8.68;;;2.63;;
72388;SDS011;60566;48.062;9.930;2024-02-21T16:18:42;4.80;;;2.35;;
72388;SDS011;60566;48.062;9.930;2024-02-21T16:21:21;4.93;;;2.40;;
72388;SDS011;60566;48.062;9.930;2024-02-21T16:23:46;4.57;;;2.20;;
72388;SDS011;60566;48.062;9.930;2024-02-21T16:26:21;4.45;;;1.83;;
72388;SDS011;60566;48.062;9.930;2024-02-21T16:28:50;3.85;;;1.70;;
72388;SDS011;60566;48.062;9.930;2024-02-21T16:34:07;3.40;;;2.10;;